createdAt,value
2023-05-10T00:02:10.815Z,70.88
2023-05-10T00:04:38.122Z,71.03
2023-05-10T00:07:05.298Z,69.94
2023-05-10T00:09:32.529Z,70.23
2023-05-10T00:12:00.018Z,70.03
2023-05-10T00:14:27.219Z,70.44
2023-05-10T00:16:54.514Z,70.88
2023-05-10T00:19:21.782Z,70.68
2023-05-10T00:21:49.189Z,70.50
2023-05-10T00:24:16.437Z,70.64
2023-05-10T00:26:43.709Z,69.90
2023-05-10T00:29:10.928Z,69.93
2023-05-10T00:31:38.404Z,70.76
2023-05-10T00:34:05.789Z,72.04
2023-05-10T00:36:33.140Z,73.02
2023-05-10T00:39:00.948Z,74.40
2023-05-10T00:41:28.526Z,75.44
2023-05-10T00:43:55.994Z,74.83
2023-05-10T00:46:24.285Z,75.41
2023-05-10T00:48:51.547Z,75.78
2023-05-10T00:51:18.865Z,76.11
2023-05-10T00:53:49.552Z,76.47
2023-05-10T00:56:17.099Z,76.74
2023-05-10T00:58:44.518Z,77.27
2023-05-10T01:01:11.959Z,76.48
2023-05-10T01:03:39.305Z,77.06
2023-05-10T01:06:06.885Z,77.58
2023-05-10T01:08:34.199Z,77.34
2023-05-10T01:11:01.529Z,77.14
2023-05-10T01:13:38.425Z,76.14
2023-05-10T01:16:07.536Z,77.05
2023-05-10T01:18:37.565Z,77.09
2023-05-10T01:21:23.022Z,77.96
2023-05-10T01:24:14.879Z,78.46
2023-05-10T01:26:53.564Z,78.40
2023-05-10T01:30:05.092Z,77.41
2023-05-10T01:33:17.985Z,76.91
2023-05-10T01:36:04.919Z,76.08
2023-05-10T01:38:43.599Z,76.17
2023-05-10T01:41:19.908Z,76.09
2023-05-10T01:43:58.662Z,75.26
2023-05-10T01:46:30.004Z,75.50
2023-05-10T01:48:58.733Z,75.97
2023-05-10T01:51:30.319Z,76.46
2023-05-10T01:54:02.849Z,75.60
2023-05-10T01:56:31.904Z,74.82
2023-05-10T01:58:59.550Z,74.41
2023-05-10T02:01:27.318Z,74.73
2023-05-10T02:03:54.969Z,74.78
2023-05-10T02:06:22.282Z,75.06
2023-05-10T02:08:49.590Z,74.94
2023-05-10T02:11:17.203Z,75.46
2023-05-10T02:13:44.704Z,75.57
2023-05-10T02:16:12.013Z,75.81
2023-05-10T02:18:39.860Z,76.51
2023-05-10T02:21:07.476Z,76.38
2023-05-10T02:23:34.692Z,76.60
2023-05-10T02:26:03.411Z,75.51
2023-05-10T02:28:30.706Z,75.53
2023-05-10T02:30:58.078Z,74.45
2023-05-10T02:33:25.624Z,75.06
2023-05-10T02:35:53.144Z,74.76
2023-05-10T02:38:21.045Z,74.90
2023-05-10T02:40:48.384Z,75.21
2023-05-10T02:43:17.486Z,75.64
2023-05-10T02:45:44.947Z,75.85
2023-05-10T02:48:12.758Z,76.65
2023-05-10T02:50:40.004Z,77.45
2023-05-10T02:53:12.704Z,77.39
2023-05-10T02:55:41.645Z,76.70
2023-05-10T02:58:09.005Z,76.85
2023-05-10T03:00:37.333Z,76.87
2023-05-10T03:03:04.714Z,76.70
2023-05-10T03:05:32.228Z,77.05
2023-05-10T03:08:04.994Z,77.23
2023-05-10T03:10:32.560Z,77.42
2023-05-10T03:13:18.815Z,77.66
2023-05-10T03:16:08.898Z,78.51
2023-05-10T03:18:45.962Z,78.53
2023-05-10T03:21:13.633Z,78.98
2023-05-10T03:23:45.799Z,79.10
2023-05-10T03:26:21.480Z,78.66
2023-05-10T03:28:49.929Z,78.71
2023-05-10T03:31:17.267Z,78.76
2023-05-10T03:33:51.585Z,79.07
2023-05-10T03:36:23.937Z,79.07
2023-05-10T03:38:51.519Z,79.19
2023-05-10T03:41:18.937Z,78.92
2023-05-10T03:43:46.277Z,78.59
2023-05-10T03:46:13.588Z,78.22
2023-05-10T03:48:41.624Z,77.71
2023-05-10T03:51:08.883Z,76.36
2023-05-10T03:53:36.647Z,75.80
2023-05-10T03:56:04.081Z,75.77
2023-05-10T03:58:31.335Z,75.49
2023-05-10T04:00:59.393Z,75.09
2023-05-10T04:03:27.424Z,74.72
2023-05-10T04:06:02.170Z,75.78
2023-05-10T04:08:30.117Z,75.30
2023-05-10T04:11:08.589Z,76.06
2023-05-10T04:13:36.229Z,76.87
2023-05-10T04:16:03.638Z,77.61
2023-05-10T04:18:31.421Z,77.95
2023-05-10T04:20:58.800Z,77.76
2023-05-10T04:23:26.204Z,78.14
2023-05-10T04:25:53.408Z,77.74
2023-05-10T04:28:20.708Z,77.31
2023-05-10T04:30:48.242Z,76.41
2023-05-10T04:33:15.539Z,75.55
2023-05-10T04:35:42.807Z,75.47
2023-05-10T04:38:10.038Z,75.48
2023-05-10T04:40:37.314Z,75.29
2023-05-10T04:43:04.575Z,74.75
2023-05-10T04:45:31.902Z,74.27
2023-05-10T04:47:59.224Z,74.36
2023-05-10T04:50:26.668Z,74.28
2023-05-10T04:52:54.033Z,73.97
2023-05-10T04:55:21.453Z,73.91
2023-05-10T04:57:48.735Z,73.73
2023-05-10T05:00:16.639Z,73.84
2023-05-10T05:02:47.522Z,73.34
2023-05-10T05:05:14.822Z,73.59
2023-05-10T05:07:42.157Z,73.70
2023-05-10T05:10:09.614Z,73.95
2023-05-10T05:12:40.158Z,73.97
2023-05-10T05:15:09.871Z,74.15
2023-05-10T05:17:37.450Z,74.15
2023-05-10T05:20:08.573Z,74.77
2023-05-10T05:22:37.467Z,74.96
2023-05-10T05:25:05.474Z,75.40
2023-05-10T05:27:33.246Z,75.43
2023-05-10T05:30:00.570Z,75.22
2023-05-10T05:32:28.016Z,75.48
2023-05-10T05:34:55.429Z,75.91
2023-05-10T05:37:42.229Z,76.05
2023-05-10T05:40:30.215Z,76.81
2023-05-10T05:43:01.201Z,76.55
2023-05-10T05:45:28.774Z,77.17
2023-05-10T05:47:57.083Z,77.09
2023-05-10T05:50:26.200Z,77.52
2023-05-10T05:52:53.927Z,77.56
2023-05-10T05:55:21.311Z,77.15
2023-05-10T05:57:48.835Z,77.33
2023-05-10T06:00:16.933Z,77.68
2023-05-10T06:02:46.359Z,78.07
2023-05-10T06:05:15.670Z,77.98
2023-05-10T06:07:43.608Z,77.45
2023-05-10T06:10:21.931Z,76.84
2023-05-10T06:13:05.343Z,76.70
2023-05-10T06:15:43.661Z,75.81
2023-05-10T06:18:29.507Z,76.08
2023-05-10T06:21:11.186Z,75.75
2023-05-10T06:23:49.139Z,75.31
2023-05-10T06:26:27.313Z,75.68
2023-05-10T06:28:57.445Z,75.30
2023-05-10T06:31:25.410Z,75.64
2023-05-10T06:33:56.073Z,74.76
2023-05-10T06:36:27.602Z,66.68
2023-05-10T06:38:55.305Z,61.55
2023-05-10T06:41:48.461Z,57.29
2023-05-10T06:44:16.275Z,54.11
2023-05-10T06:46:47.123Z,51.27
2023-05-10T06:49:15.209Z,50.95
2023-05-10T06:51:43.056Z,49.26
2023-05-10T06:54:13.936Z,45.82
2023-05-10T06:56:41.668Z,49.59
2023-05-10T06:59:09.723Z,49.53
2023-05-10T07:01:37.414Z,51.76
2023-05-10T07:04:05.164Z,52.79
2023-05-10T07:06:34.493Z,51.21
2023-05-10T07:09:01.988Z,48.63
2023-05-10T07:11:29.406Z,49.12
2023-05-10T07:14:00.709Z,47.50
2023-05-10T07:16:28.668Z,50.86
2023-05-10T07:19:09.656Z,52.52
2023-05-10T07:22:14.044Z,49.06
2023-05-10T07:24:41.626Z,55.37
2023-05-10T07:27:09.516Z,50.59
2023-05-10T07:29:38.617Z,49.78
2023-05-10T07:32:10.926Z,49.13
2023-05-10T07:34:38.835Z,47.93
2023-05-10T07:37:07.476Z,47.24
2023-05-10T07:39:35.181Z,46.08
2023-05-10T07:42:03.885Z,51.56
2023-05-10T07:44:35.835Z,50.53
2023-05-10T07:47:03.617Z,58.74
2023-05-10T07:49:31.075Z,55.50
2023-05-10T07:52:00.114Z,54.18
2023-05-10T07:54:33.335Z,52.23
2023-05-10T07:57:03.607Z,53.63
2023-05-10T07:59:34.875Z,52.01
2023-05-10T08:02:02.565Z,48.69
2023-05-10T08:04:30.714Z,48.22
2023-05-10T08:07:04.161Z,48.66
2023-05-10T08:09:38.758Z,50.97
2023-05-10T08:12:07.043Z,56.47
2023-05-10T08:14:35.000Z,57.78
2023-05-10T08:17:03.371Z,54.87
2023-05-10T08:19:30.978Z,53.59
2023-05-10T08:21:59.112Z,54.85
2023-05-10T08:24:27.119Z,56.39
2023-05-10T08:26:54.940Z,55.16
2023-05-10T08:29:25.361Z,55.23
2023-05-10T08:32:03.955Z,54.57
2023-05-10T08:34:33.499Z,53.85
2023-05-10T08:37:06.786Z,53.72
2023-05-10T08:39:37.670Z,52.34
2023-05-10T08:42:05.972Z,51.61
2023-05-10T08:44:40.528Z,51.57
2023-05-10T08:47:15.624Z,51.34
2023-05-10T08:49:44.540Z,52.68
2023-05-10T08:52:16.542Z,49.82
2023-05-10T08:54:52.807Z,50.98
2023-05-10T08:57:20.303Z,52.22
2023-05-10T08:59:54.581Z,51.43
2023-05-10T09:02:28.362Z,50.01
2023-05-10T09:04:59.274Z,50.51
2023-05-10T09:07:28.071Z,51.04
2023-05-10T09:09:55.426Z,49.76
2023-05-10T09:12:28.511Z,50.51
2023-05-10T09:17:59.760Z,50.98
2023-05-10T09:18:05.770Z,51.50
2023-05-10T09:20:35.094Z,50.02
2023-05-10T09:23:02.904Z,50.49
2023-05-10T09:25:37.884Z,50.32
2023-05-10T09:28:12.594Z,50.85
2023-05-10T09:30:49.947Z,52.81
2023-05-10T09:33:22.732Z,52.85
2023-05-10T09:36:44.582Z,52.49
2023-05-10T09:39:13.612Z,51.41
2023-05-10T09:41:43.682Z,51.44
2023-05-10T09:44:15.609Z,50.91
2023-05-10T09:46:43.502Z,49.66
2023-05-10T09:49:10.999Z,48.13
2023-05-10T09:51:42.349Z,46.96
2023-05-10T09:54:29.808Z,47.50
2023-05-10T09:57:01.918Z,46.32
2023-05-10T09:59:29.786Z,46.92
2023-05-10T10:02:02.799Z,47.18
2023-05-10T10:04:32.292Z,47.49
2023-05-10T10:10:04.681Z,49.45
2023-05-10T10:18:54.147Z,49.09
2023-05-10T10:21:28.757Z,49.54
2023-05-10T10:24:06.643Z,48.75
2023-05-10T10:26:45.154Z,47.69
2023-05-10T10:29:46.695Z,47.28
2023-05-10T10:32:33.839Z,48.78
2023-05-10T10:35:01.777Z,48.87
2023-05-10T10:37:48.392Z,47.84
2023-05-10T10:40:34.867Z,46.25
2023-05-10T10:43:38.685Z,46.80
2023-05-10T10:46:14.687Z,49.51
2023-05-10T10:48:51.813Z,50.11
2023-05-10T10:51:20.616Z,49.33
2023-05-10T10:53:49.043Z,47.86
2023-05-10T10:56:17.535Z,47.95
2023-05-10T10:58:52.286Z,44.46
2023-05-10T11:01:20.017Z,46.60
2023-05-10T11:04:09.169Z,46.11
2023-05-10T11:06:48.736Z,45.77
2023-05-10T11:09:29.402Z,44.67
2023-05-10T11:11:59.916Z,44.39
2023-05-10T11:14:28.992Z,44.06
2023-05-10T11:17:01.541Z,45.00
2023-05-10T11:19:32.291Z,44.79
2023-05-10T11:22:06.687Z,44.56
2023-05-10T11:24:36.934Z,44.74
2023-05-10T11:27:04.527Z,47.58
2023-05-10T11:29:31.924Z,47.89
2023-05-10T11:32:24.675Z,48.76
2023-05-10T11:34:52.258Z,49.73
2023-05-10T11:37:25.987Z,49.28
2023-05-10T11:39:56.854Z,47.10
2023-05-10T11:42:27.107Z,47.63
2023-05-10T11:44:55.149Z,46.57
2023-05-10T11:47:23.802Z,46.44
2023-05-10T11:49:52.628Z,46.14
2023-05-10T11:52:20.125Z,46.27
2023-05-10T11:54:54.887Z,45.54
2023-05-10T11:57:27.191Z,46.79
2023-05-10T11:59:56.021Z,47.79
2023-05-10T12:02:23.588Z,46.56
2023-05-10T12:04:51.900Z,45.13
2023-05-10T12:07:19.370Z,46.17
2023-05-10T12:10:16.163Z,44.67
2023-05-10T12:12:49.158Z,44.32
2023-05-10T12:15:21.150Z,44.24
2023-05-10T12:17:49.295Z,43.39
2023-05-10T12:20:23.459Z,43.33
2023-05-10T12:22:52.387Z,45.01
2023-05-10T12:25:29.003Z,45.62
2023-05-10T12:27:57.591Z,46.64
2023-05-10T12:30:26.044Z,45.21
2023-05-10T12:32:59.781Z,44.26
2023-05-10T12:35:33.313Z,44.15
2023-05-10T12:38:01.209Z,43.98
2023-05-10T12:40:28.576Z,44.87
2023-05-10T12:42:56.032Z,45.33
2023-05-10T12:45:23.820Z,44.72
2023-05-10T12:47:51.445Z,44.36
2023-05-10T12:50:19.241Z,43.20
2023-05-10T12:52:46.770Z,42.93
2023-05-10T12:55:13.967Z,44.13
2023-05-10T12:57:41.359Z,43.26
2023-05-10T13:00:09.413Z,44.41
2023-05-10T13:02:36.712Z,44.07
2023-05-10T13:05:04.390Z,45.25
2023-05-10T13:07:31.748Z,45.61
2023-05-10T13:09:59.032Z,46.37
2023-05-10T13:12:26.398Z,45.88
2023-05-10T13:14:54.029Z,45.87
2023-05-10T13:17:21.420Z,44.80
2023-05-10T13:19:48.886Z,43.49
2023-05-10T13:22:22.841Z,44.07
2023-05-10T13:24:56.333Z,42.90
2023-05-10T13:27:23.741Z,42.35
2023-05-10T13:29:51.293Z,42.85
2023-05-10T13:32:18.838Z,41.77
2023-05-10T13:34:46.206Z,41.24
2023-05-10T13:37:13.590Z,41.47
2023-05-10T13:39:40.928Z,42.06
2023-05-10T13:42:08.811Z,41.54
2023-05-10T13:44:37.161Z,43.15
2023-05-10T13:47:04.473Z,42.32
2023-05-10T13:49:32.180Z,42.39
2023-05-10T13:51:59.955Z,43.55
2023-05-10T13:54:30.481Z,44.74
2023-05-10T13:56:57.810Z,45.27
2023-05-10T13:59:25.064Z,45.55
2023-05-10T14:01:52.770Z,45.35
2023-05-10T14:04:20.063Z,44.56
2023-05-10T14:06:47.615Z,43.20
2023-05-10T14:09:15.298Z,43.43
2023-05-10T14:11:44.253Z,43.51
2023-05-10T14:14:11.554Z,44.24
2023-05-10T14:16:39.066Z,44.44
2023-05-10T14:19:06.391Z,44.03
2023-05-10T14:21:34.226Z,42.95
2023-05-10T14:24:01.486Z,43.57
2023-05-10T14:26:28.871Z,43.83
2023-05-10T14:28:56.144Z,43.38
2023-05-10T14:31:25.742Z,43.19
2023-05-10T14:33:53.851Z,42.81
2023-05-10T14:36:21.232Z,41.90
2023-05-10T14:38:48.658Z,42.72
2023-05-10T14:41:18.616Z,42.26
2023-05-10T14:43:46.349Z,41.07
2023-05-10T14:46:14.395Z,41.30
2023-05-10T14:48:47.367Z,42.04
2023-05-10T14:51:14.721Z,42.55
2023-05-10T14:53:42.084Z,42.91
2023-05-10T14:56:09.392Z,43.69
2023-05-10T14:58:36.662Z,43.20
2023-05-10T15:01:04.361Z,43.10
2023-05-10T15:03:32.517Z,43.38
2023-05-10T15:06:00.386Z,43.49
2023-05-10T15:08:27.674Z,44.27
2023-05-10T15:10:56.895Z,43.69
2023-05-10T15:13:24.190Z,43.88
2023-05-10T15:15:51.626Z,43.55
2023-05-10T15:18:19.029Z,43.54
2023-05-10T15:20:46.452Z,43.62
2023-05-10T15:23:13.951Z,43.81
2023-05-10T15:25:41.300Z,44.30
2023-05-10T15:28:08.669Z,44.36
2023-05-10T15:30:36.743Z,45.08
2023-05-10T15:33:04.083Z,45.08
2023-05-10T15:35:31.617Z,45.50
2023-05-10T15:37:58.923Z,45.18
2023-05-10T15:40:26.231Z,44.73
2023-05-10T15:42:53.478Z,45.39
2023-05-10T15:45:21.103Z,45.83
2023-05-10T15:47:48.979Z,45.17
2023-05-10T15:50:17.025Z,45.63
2023-05-10T15:52:44.209Z,45.89
2023-05-10T15:55:14.201Z,46.06
2023-05-10T15:57:42.628Z,45.45
2023-05-10T16:00:10.942Z,45.74
2023-05-10T16:02:41.538Z,45.79
2023-05-10T16:05:10.002Z,46.41
2023-05-10T16:07:37.296Z,46.80
2023-05-10T16:10:06.614Z,46.64
2023-05-10T16:12:33.925Z,46.51
2023-05-10T16:15:01.210Z,45.71
2023-05-10T16:17:28.768Z,44.97
2023-05-10T16:19:56.358Z,45.18
2023-05-10T16:22:27.298Z,45.74
2023-05-10T16:24:54.762Z,45.74
2023-05-10T16:27:22.200Z,45.68
2023-05-10T16:29:49.683Z,45.96
2023-05-10T16:32:17.183Z,45.82
2023-05-10T16:34:44.524Z,46.21
2023-05-10T16:37:11.752Z,46.52
2023-05-10T16:39:39.079Z,46.66
2023-05-10T16:42:15.510Z,46.37
2023-05-10T16:44:43.017Z,47.01
2023-05-10T16:47:10.279Z,47.03
2023-05-10T16:49:37.662Z,47.08
2023-05-10T16:52:05.136Z,47.62
2023-05-10T16:54:32.640Z,46.88
2023-05-10T16:56:59.960Z,46.97
2023-05-10T16:59:27.394Z,46.54
2023-05-10T17:01:55.099Z,46.51
2023-05-10T17:04:22.520Z,46.71
2023-05-10T17:06:49.954Z,46.98
2023-05-10T17:09:17.427Z,47.10
2023-05-10T17:11:44.745Z,47.27
2023-05-10T17:14:12.412Z,48.03
2023-05-10T17:16:39.847Z,48.26
2023-05-10T17:19:08.626Z,48.70
2023-05-10T17:21:36.142Z,48.84
2023-05-10T17:24:05.752Z,48.80
2023-05-10T17:26:34.690Z,49.00
2023-05-10T17:29:02.001Z,49.21
2023-05-10T17:31:29.997Z,49.44
2023-05-10T17:33:57.371Z,49.17
2023-05-10T17:36:24.909Z,49.03
2023-05-10T17:38:52.653Z,49.04
2023-05-10T17:41:19.972Z,49.23
2023-05-10T17:43:47.307Z,48.93
2023-05-10T17:46:14.958Z,49.16
2023-05-10T17:48:42.379Z,49.10
2023-05-10T17:51:12.093Z,49.19
2023-05-10T17:53:40.362Z,49.44
2023-05-10T17:56:07.814Z,49.75
2023-05-10T17:58:38.317Z,50.18
2023-05-10T18:01:06.266Z,50.73
2023-05-10T18:03:35.936Z,50.29
2023-05-10T18:06:04.526Z,50.79
2023-05-10T18:08:33.109Z,51.76
2023-05-10T18:11:00.476Z,51.40
2023-05-10T18:13:28.002Z,51.77
2023-05-10T18:15:55.440Z,51.47
2023-05-10T18:18:22.761Z,52.14
2023-05-10T18:20:56.469Z,52.01
2023-05-10T18:23:24.696Z,51.75
2023-05-10T18:25:52.174Z,51.83
2023-05-10T18:28:19.513Z,52.46
2023-05-10T18:30:46.851Z,51.97
2023-05-10T18:33:14.466Z,52.86
2023-05-10T18:35:41.960Z,53.68
2023-05-10T18:38:09.937Z,53.97
2023-05-10T18:40:37.255Z,53.97
2023-05-10T18:43:04.836Z,54.19
2023-05-10T18:45:32.167Z,53.87
2023-05-10T18:47:59.660Z,54.47
2023-05-10T18:50:26.865Z,54.75
2023-05-10T18:52:56.138Z,54.47
2023-05-10T18:55:25.875Z,55.36
2023-05-10T18:57:53.206Z,55.21
2023-05-10T19:00:20.594Z,54.72
2023-05-10T19:02:48.020Z,55.32
2023-05-10T19:05:16.006Z,55.09
2023-05-10T19:07:44.046Z,55.15
2023-05-10T19:10:15.078Z,55.22
2023-05-10T19:12:42.579Z,55.09
2023-05-10T19:15:10.555Z,55.44
2023-05-10T19:17:40.760Z,55.71
2023-05-10T19:20:10.616Z,55.69
2023-05-10T19:22:54.225Z,55.38
2023-05-10T19:25:29.711Z,55.63
2023-05-10T19:27:58.022Z,55.56
2023-05-10T19:30:26.135Z,55.49
2023-05-10T19:32:53.593Z,56.05
2023-05-10T19:35:20.945Z,55.96
2023-05-10T19:37:49.270Z,55.82
2023-05-10T19:40:17.515Z,55.87
2023-05-10T19:42:44.952Z,56.45
2023-05-10T19:45:12.382Z,56.24
2023-05-10T19:47:40.040Z,56.09
2023-05-10T19:50:08.063Z,56.37
2023-05-10T19:52:35.421Z,56.40
2023-05-10T19:55:02.790Z,56.63
2023-05-10T19:57:30.037Z,56.90
2023-05-10T19:59:57.238Z,57.19
2023-05-10T20:02:24.591Z,56.94
2023-05-10T20:04:51.858Z,56.61
2023-05-10T20:07:19.115Z,56.84
2023-05-10T20:09:46.393Z,57.09
2023-05-10T20:12:13.722Z,57.56
2023-05-10T20:14:40.972Z,57.62
2023-05-10T20:17:08.329Z,57.75
2023-05-10T20:19:35.591Z,57.69
2023-05-10T20:22:05.358Z,57.85
2023-05-10T20:24:32.653Z,58.33
2023-05-10T20:27:00.533Z,58.29
2023-05-10T20:29:27.701Z,58.29
2023-05-10T20:31:55.066Z,57.98
2023-05-10T20:34:22.309Z,58.14
2023-05-10T20:36:49.563Z,58.56
2023-05-10T20:39:16.891Z,58.52
2023-05-10T20:41:44.685Z,58.70
2023-05-10T20:44:11.875Z,59.13
2023-05-10T20:46:39.234Z,58.83
2023-05-10T20:49:08.066Z,58.67
2023-05-10T20:51:35.445Z,58.77
2023-05-10T20:54:04.392Z,59.25
2023-05-10T20:56:31.652Z,59.24
2023-05-10T20:58:58.957Z,59.17
2023-05-10T21:01:26.539Z,59.58
2023-05-10T21:03:53.811Z,59.26
2023-05-10T21:06:21.045Z,59.08
2023-05-10T21:08:48.261Z,59.00
2023-05-10T21:11:15.534Z,59.46
2023-05-10T21:13:42.772Z,59.71
2023-05-10T21:16:10.063Z,59.95
2023-05-10T21:18:37.299Z,60.08
2023-05-10T21:21:04.631Z,60.31
2023-05-10T21:23:34.274Z,60.40
2023-05-10T21:26:04.740Z,60.35
2023-05-10T21:28:32.043Z,60.72
2023-05-10T21:30:59.246Z,60.65
2023-05-10T21:33:26.456Z,60.37
2023-05-10T21:35:53.708Z,60.46
2023-05-10T21:38:20.994Z,60.62
2023-05-10T21:40:48.221Z,60.25
2023-05-10T21:43:15.567Z,60.39
2023-05-10T21:45:42.982Z,60.58
2023-05-10T21:48:10.357Z,60.75
2023-05-10T21:50:37.588Z,61.03
2023-05-10T21:53:04.832Z,60.77
2023-05-10T21:55:32.603Z,60.78
2023-05-10T21:57:59.906Z,61.45
2023-05-10T22:00:27.225Z,61.65
2023-05-10T22:02:54.586Z,61.29
2023-05-10T22:05:21.964Z,61.07
2023-05-10T22:07:49.263Z,60.98
2023-05-10T22:10:16.856Z,61.40
2023-05-10T22:12:44.281Z,61.35
2023-05-10T22:15:11.600Z,61.25
2023-05-10T22:17:39.900Z,61.19
2023-05-10T22:20:08.533Z,61.46
2023-05-10T22:22:36.856Z,61.97
2023-05-10T22:25:06.700Z,61.45
2023-05-10T22:27:34.157Z,61.62
2023-05-10T22:30:01.638Z,61.19
2023-05-10T22:32:29.011Z,61.56
2023-05-10T22:34:56.485Z,62.00
2023-05-10T22:37:23.765Z,61.39
2023-05-10T22:39:50.951Z,61.18
2023-05-10T22:42:18.202Z,61.47
2023-05-10T22:44:45.420Z,61.55
2023-05-10T22:47:12.786Z,61.71
2023-05-10T22:49:40.022Z,61.83
2023-05-10T22:52:07.285Z,62.09
2023-05-10T22:54:36.274Z,62.41
2023-05-10T22:57:03.938Z,62.86
2023-05-10T22:59:31.110Z,62.76
2023-05-10T23:01:58.382Z,62.33
2023-05-10T23:04:26.056Z,62.60
2023-05-10T23:06:53.712Z,62.71
2023-05-10T23:09:21.267Z,62.82
2023-05-10T23:11:48.553Z,62.89
2023-05-10T23:14:15.742Z,62.06
2023-05-10T23:16:43.180Z,62.35
2023-05-10T23:19:10.459Z,63.07
2023-05-10T23:21:37.710Z,62.58
2023-05-10T23:24:05.384Z,62.59
2023-05-10T23:26:34.158Z,62.59
2023-05-10T23:29:01.893Z,62.82
2023-05-10T23:31:29.290Z,63.61
2023-05-10T23:33:56.539Z,63.49
2023-05-10T23:36:23.860Z,63.63
2023-05-10T23:38:51.076Z,63.65
2023-05-10T23:41:18.474Z,63.86
2023-05-10T23:43:45.658Z,63.84
2023-05-10T23:46:12.935Z,64.02
2023-05-10T23:48:40.241Z,63.98
2023-05-10T23:51:07.742Z,63.72
2023-05-10T23:53:35.202Z,64.12
2023-05-10T23:56:02.489Z,64.34
2023-05-10T23:58:29.711Z,64.68
